WetterOnline ( http://www.wetteronline.de )

Wetter aktuell Frankfurt am Main

Aktuelles Wetter: Offenbach (119m)

6-stündlich | Neueste Meldungen
Ortszeit Temperatur Wetter
Do, 19.04. 20:00 25.3° C leicht bewölkt
Do, 19.04. 14:00 26.4° C wolkenlos
Do, 19.04. 8:00 11.5° C leicht bewölkt
Do, 19.04. 2:00 10.9° C wolkig
Mi, 18.04. 20:00 24.0° C wolkenlos
Mi, 18.04. 14:00 24.1° C fast wolkenlos
Mi, 18.04. 8:00 9.2° C leicht bewölkt
Mi, 18.04. 2:00 9.5° C wolkig
Ortszeit Temperatur Wetter
Fr, 20.04. 0:30 12.8° C wolkig
Fr, 20.04. 0:20 12.8° C wolkig
Fr, 20.04. 0:10 13.1° C wolkig
Fr, 20.04. 0:00 13.6° C wolkig
Do, 19.04. 23:50 13.6° C wolkig
Do, 19.04. 23:40 13.8° C wolkig
Do, 19.04. 23:30 14.0° C wolkig
Do, 19.04. 23:00 15.2° C wolkig
Do, 19.04. 22:30 15.8° C wolkig
Do, 19.04. 22:00 17.0° C wolkig
Do, 19.04. 21:30 18.5° C leicht bewölkt
Ortszeit Relative Feuchte Sichtweite
Do, 19.04. 20:00 24% 60 km
Do, 19.04. 14:00 21% 40 km
Do, 19.04. 8:00 79% 24 km
Do, 19.04. 2:00 86% 29 km
Mi, 18.04. 20:00 27% 60 km
Mi, 18.04. 14:00 34% 40 km
Mi, 18.04. 8:00 87% 16 km
Mi, 18.04. 2:00 92% 25 km
Ortszeit Relative Feuchte Sichtweite
Fr, 20.04. 0:30 73% 40 km
Fr, 20.04. 0:20 73% -
Fr, 20.04. 0:10 72% -
Fr, 20.04. 0:00 69% 45 km
Do, 19.04. 23:50 69% -
Do, 19.04. 23:40 70% -
Do, 19.04. 23:30 66% 40 km
Do, 19.04. 23:00 58% 45 km
Do, 19.04. 22:30 56% 50 km
Do, 19.04. 22:00 50% 50 km
Do, 19.04. 21:30 47% 45 km
Ortszeit Niederschlagsmenge Niederschlagsart
Do, 19.04. 20:00 0.0 l/m2 in 12 Std. -
Do, 19.04. 14:00 0.0 l/m2 in 6 Std. -
Do, 19.04. 8:00 0.0 l/m2 in 12 Std. -
Do, 19.04. 2:00 0.0 l/m2 in 6 Std. -
Mi, 18.04. 20:00 0.0 l/m2 in 12 Std. -
Mi, 18.04. 14:00 0.0 l/m2 in 6 Std. -
Mi, 18.04. 8:00 0.0 l/m2 in 12 Std. -
Mi, 18.04. 2:00 0.0 l/m2 in 6 Std. -
Ortszeit Niederschlagsmenge Niederschlagsart
Fr, 20.04. 0:30 0.0 l/m2 in 1 Std. -
Fr, 20.04. 0:20 keine Meldung -
Fr, 20.04. 0:10 keine Meldung -
Fr, 20.04. 0:00 0.0 l/m2 in 1 Std. -
Do, 19.04. 23:50 keine Meldung -
Do, 19.04. 23:40 keine Meldung -
Do, 19.04. 23:30 0.0 l/m2 in 1 Std. -
Do, 19.04. 23:00 0.0 l/m2 in 1 Std. -
Do, 19.04. 22:30 0.0 l/m2 in 1 Std. -
Do, 19.04. 22:00 0.0 l/m2 in 1 Std. -
Do, 19.04. 21:30 0.0 l/m2 in 1 Std. -
Ortszeit Stärke Spitze Richtung
km/h Bft. km/h Grad Sektor
Do, 19.04. 20:00 7 2 29 110° O
Do, 19.04. 14:00 9 2 26 130° SO
Do, 19.04. 8:00 6 1 15 110° O
Do, 19.04. 2:00 0 0 14 - -
Mi, 18.04. 20:00 7 2 29 120° SO
Mi, 18.04. 14:00 7 2 18 90° O
Mi, 18.04. 8:00 4 1 7 40° NO
Mi, 18.04. 2:00 2 1 9 130° SO
Ortszeit Stärke Spitze Richtung
km/h Bft. km/h Grad Sektor
Fr, 20.04. 0:30 4 1 4 20° N
Fr, 20.04. 0:20 4 1 - 20° N
Fr, 20.04. 0:10 0 0 - - -
Fr, 20.04. 0:00 2 1 7 150° SO
Do, 19.04. 23:50 2 1 - 150° SO
Do, 19.04. 23:40 4 1 - 120° SO
Do, 19.04. 23:30 4 1 7 110° O
Do, 19.04. 23:00 0 0 4 - -
Do, 19.04. 22:30 4 1 4 130° SO
Do, 19.04. 22:00 2 1 7 90° O
Do, 19.04. 21:30 4 1 7 170° S
Ortszeit Untergrenze Bedeckung Gattung
total tief tief mittel hoch
Do, 19.04. 20:00 2700 m 5/8 1/8 - - -
Do, 19.04. 14:00 - 0/8 0/8 - - -
Do, 19.04. 8:00 12000 m 8/8 0/8 - - -
Do, 19.04. 2:00 12000 m 7/8 0/8 - - -
Mi, 18.04. 20:00 - 0/8 0/8 - - -
Mi, 18.04. 14:00 12000 m 2/8 0/8 - - -
Mi, 18.04. 8:00 2700 m 3/8 - - - -
Mi, 18.04. 2:00 9000 m 8/8 0/8 - - -
Ortszeit Bedeckungsgrad in Achtel und Wolkenuntergrenze
Fr, 20.04. 0:30 6(10500m) 8(10500m) 8(12000m)
Fr, 20.04. 0:20 6(10500m) 8(10500m) 8(12000m)
Fr, 20.04. 0:10 4(10500m) 8(10500m)
Fr, 20.04. 0:00 8(10500m)
Do, 19.04. 23:50 8(10500m)
Do, 19.04. 23:40 8(10500m)
Do, 19.04. 23:30 8(10500m)
Do, 19.04. 23:00 8(10500m) 8(12000m)
Do, 19.04. 22:30 8(10500m) 8(12000m)
Do, 19.04. 22:00 5(10500m) 8(12000m)
Do, 19.04. 21:30 3(12000m)
Ortszeit Luftdruck NN (hPa) Tendenz (hPa in 3 Std.)
Do, 19.04. 20:00 1025 - 0,5
Do, 19.04. 14:00 1027 - 1,4
Do, 19.04. 8:00 1030 + 0,1
Do, 19.04. 2:00 1030 0,0
Mi, 18.04. 20:00 1029 - 0,8
Mi, 18.04. 14:00 1031 - 0,9
Mi, 18.04. 8:00 1032 + 1,1
Mi, 18.04. 2:00 1030 + 1,4
Ortszeit Luftdruck NN (hPa) Tendenz (hPa in 3 Std.)
Fr, 20.04. 0:30 1026 - 0,1
Fr, 20.04. 0:20 1026 keine Meldung
Fr, 20.04. 0:10 1026 keine Meldung
Fr, 20.04. 0:00 1026 + 0,3
Do, 19.04. 23:50 1026 keine Meldung
Do, 19.04. 23:40 1026 keine Meldung
Do, 19.04. 23:30 1026 + 0,4
Do, 19.04. 23:00 1026 + 0,6
Do, 19.04. 22:30 1026 + 0,5
Do, 19.04. 22:00 1026 + 0,5
Do, 19.04. 21:30 1026 + 0,4
Ortszeit Schneehöhe (cm)
Do, 19.04. 20:00 0
Do, 19.04. 14:00 0
Do, 19.04. 8:00 0
Do, 19.04. 2:00 0
Mi, 18.04. 20:00 0
Mi, 18.04. 14:00 0
Mi, 18.04. 8:00 0
Mi, 18.04. 2:00 0
Ortszeit Schneehöhe (cm)
Fr, 20.04. 0:30 0
Fr, 20.04. 0:20 0
Fr, 20.04. 0:10 0
Fr, 20.04. 0:00 0
Do, 19.04. 23:50 0
Do, 19.04. 23:40 0
Do, 19.04. 23:30 0
Do, 19.04. 23:00 0
Do, 19.04. 22:30 0
Do, 19.04. 22:00 0
Do, 19.04. 21:30 0
Link zu dieser Seite / Seite empfehlen

Das Wetter in ...